sensor_id;sensor_type;location;lat;lon;timestamp;P1;durP1;ratioP1;P2;durP2;ratioP2
13102;SDS011;52970;46.752;17.108;2023-04-10T00:00:14;12.17;;;10.40;;
13102;SDS011;52970;46.752;17.108;2023-04-10T00:02:39;13.60;;;10.93;;
13102;SDS011;52970;46.752;17.108;2023-04-10T00:05:05;12.97;;;10.63;;
13102;SDS011;52970;46.752;17.108;2023-04-10T00:07:30;12.97;;;10.30;;
13102;SDS011;52970;46.752;17.108;2023-04-10T00:09:56;12.67;;;10.57;;
13102;SDS011;52970;46.752;17.108;2023-04-10T00:12:21;14.57;;;11.10;;
13102;SDS011;52970;46.752;17.108;2023-04-10T00:14:46;11.57;;;9.87;;
13102;SDS011;52970;46.752;17.108;2023-04-10T00:17:12;12.63;;;10.80;;
13102;SDS011;52970;46.752;17.108;2023-04-10T00:19:37;15.53;;;11.77;;
13102;SDS011;52970;46.752;17.108;2023-04-10T00:22:02;14.27;;;11.40;;
13102;SDS011;52970;46.752;17.108;2023-04-10T00:24:28;14.93;;;11.10;;
13102;SDS011;52970;46.752;17.108;2023-04-10T00:26:53;12.83;;;10.07;;
13102;SDS011;52970;46.752;17.108;2023-04-10T00:29:18;15.07;;;11.33;;
13102;SDS011;52970;46.752;17.108;2023-04-10T00:31:43;13.47;;;10.70;;
13102;SDS011;52970;46.752;17.108;2023-04-10T00:34:09;13.90;;;11.33;;
13102;SDS011;52970;46.752;17.108;2023-04-10T00:36:34;13.57;;;10.43;;
13102;SDS011;52970;46.752;17.108;2023-04-10T00:39:00;14.73;;;10.70;;
13102;SDS011;52970;46.752;17.108;2023-04-10T00:41:25;14.23;;;10.73;;
13102;SDS011;52970;46.752;17.108;2023-04-10T00:43:54;14.50;;;11.00;;
13102;SDS011;52970;46.752;17.108;2023-04-10T00:46:20;14.67;;;10.50;;
13102;SDS011;52970;46.752;17.108;2023-04-10T00:48:45;15.23;;;11.40;;
13102;SDS011;52970;46.752;17.108;2023-04-10T00:51:10;15.47;;;11.23;;
13102;SDS011;52970;46.752;17.108;2023-04-10T00:53:35;13.63;;;10.60;;
13102;SDS011;52970;46.752;17.108;2023-04-10T00:56:01;14.73;;;10.93;;
13102;SDS011;52970;46.752;17.108;2023-04-10T00:58:26;13.83;;;10.77;;
13102;SDS011;52970;46.752;17.108;2023-04-10T01:00:52;15.20;;;11.33;;
13102;SDS011;52970;46.752;17.108;2023-04-10T01:03:17;12.30;;;10.07;;
13102;SDS011;52970;46.752;17.108;2023-04-10T01:05:50;14.80;;;11.43;;
13102;SDS011;52970;46.752;17.108;2023-04-10T01:10:50;14.53;;;11.30;;
13102;SDS011;52970;46.752;17.108;2023-04-10T01:15:46;13.63;;;11.20;;
13102;SDS011;52970;46.752;17.108;2023-04-10T01:18:37;15.23;;;11.00;;
13102;SDS011;52970;46.752;17.108;2023-04-10T01:20:58;13.60;;;10.37;;
13102;SDS011;52970;46.752;17.108;2023-04-10T01:23:32;14.57;;;10.87;;
13102;SDS011;52970;46.752;17.108;2023-04-10T01:26:02;15.70;;;10.87;;
13102;SDS011;52970;46.752;17.108;2023-04-10T01:31:13;14.97;;;11.37;;
13102;SDS011;52970;46.752;17.108;2023-04-10T01:33:41;15.00;;;11.03;;
13102;SDS011;52970;46.752;17.108;2023-04-10T01:36:09;15.33;;;11.67;;
13102;SDS011;52970;46.752;17.108;2023-04-10T01:38:35;15.30;;;12.10;;
13102;SDS011;52970;46.752;17.108;2023-04-10T01:41:03;14.60;;;11.00;;
13102;SDS011;52970;46.752;17.108;2023-04-10T01:43:29;14.53;;;11.27;;
13102;SDS011;52970;46.752;17.108;2023-04-10T01:45:55;13.33;;;10.87;;
13102;SDS011;52970;46.752;17.108;2023-04-10T01:48:21;14.03;;;10.97;;
13102;SDS011;52970;46.752;17.108;2023-04-10T01:50:46;13.33;;;11.17;;
13102;SDS011;52970;46.752;17.108;2023-04-10T01:53:12;15.40;;;11.10;;
13102;SDS011;52970;46.752;17.108;2023-04-10T01:55:38;14.03;;;10.57;;
13102;SDS011;52970;46.752;17.108;2023-04-10T01:58:05;16.13;;;11.07;;
13102;SDS011;52970;46.752;17.108;2023-04-10T02:00:36;14.87;;;10.60;;
13102;SDS011;52970;46.752;17.108;2023-04-10T02:03:01;14.00;;;10.30;;
13102;SDS011;52970;46.752;17.108;2023-04-10T02:05:27;16.77;;;11.30;;
13102;SDS011;52970;46.752;17.108;2023-04-10T02:09:00;14.10;;;10.20;;
13102;SDS011;52970;46.752;17.108;2023-04-10T02:10:57;14.27;;;10.50;;
13102;SDS011;52970;46.752;17.108;2023-04-10T02:13:26;14.40;;;11.17;;
13102;SDS011;52970;46.752;17.108;2023-04-10T02:15:54;14.20;;;10.93;;
13102;SDS011;52970;46.752;17.108;2023-04-10T02:18:21;15.07;;;11.10;;
13102;SDS011;52970;46.752;17.108;2023-04-10T02:20:46;11.93;;;9.97;;
13102;SDS011;52970;46.752;17.108;2023-04-10T02:23:14;15.23;;;11.30;;
13102;SDS011;52970;46.752;17.108;2023-04-10T02:25:39;13.00;;;10.27;;
13102;SDS011;52970;46.752;17.108;2023-04-10T02:28:05;12.90;;;10.27;;
13102;SDS011;52970;46.752;17.108;2023-04-10T02:30:30;13.60;;;11.13;;
13102;SDS011;52970;46.752;17.108;2023-04-10T02:32:57;14.67;;;10.87;;
13102;SDS011;52970;46.752;17.108;2023-04-10T02:35:22;14.23;;;11.00;;
13102;SDS011;52970;46.752;17.108;2023-04-10T02:37:47;13.93;;;11.27;;
13102;SDS011;52970;46.752;17.108;2023-04-10T02:40:14;15.20;;;10.83;;
13102;SDS011;52970;46.752;17.108;2023-04-10T02:42:40;15.30;;;11.60;;
13102;SDS011;52970;46.752;17.108;2023-04-10T02:45:05;14.90;;;11.57;;
13102;SDS011;52970;46.752;17.108;2023-04-10T02:47:30;14.00;;;10.93;;
13102;SDS011;52970;46.752;17.108;2023-04-10T02:49:56;15.47;;;11.20;;
13102;SDS011;52970;46.752;17.108;2023-04-10T02:52:21;14.47;;;10.90;;
13102;SDS011;52970;46.752;17.108;2023-04-10T02:54:47;14.93;;;11.33;;
13102;SDS011;52970;46.752;17.108;2023-04-10T02:57:12;14.80;;;11.30;;
13102;SDS011;52970;46.752;17.108;2023-04-10T02:59:37;14.60;;;10.27;;
13102;SDS011;52970;46.752;17.108;2023-04-10T03:02:02;13.40;;;10.73;;
13102;SDS011;52970;46.752;17.108;2023-04-10T03:04:30;14.80;;;11.27;;
13102;SDS011;52970;46.752;17.108;2023-04-10T03:06:55;13.63;;;10.63;;
13102;SDS011;52970;46.752;17.108;2023-04-10T03:09:20;13.23;;;10.83;;
13102;SDS011;52970;46.752;17.108;2023-04-10T03:11:46;12.93;;;10.00;;
13102;SDS011;52970;46.752;17.108;2023-04-10T03:14:11;13.90;;;10.67;;
13102;SDS011;52970;46.752;17.108;2023-04-10T03:16:36;14.47;;;10.77;;
13102;SDS011;52970;46.752;17.108;2023-04-10T03:19:02;14.20;;;10.10;;
13102;SDS011;52970;46.752;17.108;2023-04-10T03:21:27;15.13;;;10.70;;
13102;SDS011;52970;46.752;17.108;2023-04-10T03:23:52;14.20;;;10.77;;
13102;SDS011;52970;46.752;17.108;2023-04-10T03:26:17;11.67;;;10.10;;
13102;SDS011;52970;46.752;17.108;2023-04-10T03:28:43;17.43;;;13.03;;
13102;SDS011;52970;46.752;17.108;2023-04-10T03:31:08;16.67;;;13.87;;
13102;SDS011;52970;46.752;17.108;2023-04-10T03:33:36;13.27;;;10.47;;
13102;SDS011;52970;46.752;17.108;2023-04-10T03:36:01;12.83;;;11.47;;
13102;SDS011;52970;46.752;17.108;2023-04-10T03:38:26;12.43;;;10.40;;
13102;SDS011;52970;46.752;17.108;2023-04-10T03:40:51;13.60;;;11.20;;
13102;SDS011;52970;46.752;17.108;2023-04-10T03:43:17;13.67;;;12.20;;
13102;SDS011;52970;46.752;17.108;2023-04-10T03:45:43;14.87;;;12.87;;
13102;SDS011;52970;46.752;17.108;2023-04-10T03:48:08;13.37;;;10.83;;
13102;SDS011;52970;46.752;17.108;2023-04-10T03:50:33;12.17;;;10.90;;
13102;SDS011;52970;46.752;17.108;2023-04-10T03:52:59;12.13;;;10.87;;
13102;SDS011;52970;46.752;17.108;2023-04-10T03:55:24;15.33;;;13.73;;
13102;SDS011;52970;46.752;17.108;2023-04-10T03:57:50;27.47;;;22.23;;
13102;SDS011;52970;46.752;17.108;2023-04-10T04:00:15;25.50;;;20.97;;
13102;SDS011;52970;46.752;17.108;2023-04-10T04:02:41;20.50;;;15.10;;
13102;SDS011;52970;46.752;17.108;2023-04-10T04:05:06;26.63;;;21.10;;
13102;SDS011;52970;46.752;17.108;2023-04-10T04:07:32;19.80;;;14.40;;
13102;SDS011;52970;46.752;17.108;2023-04-10T04:09:57;36.70;;;29.10;;
13102;SDS011;52970;46.752;17.108;2023-04-10T04:12:23;39.07;;;30.20;;
13102;SDS011;52970;46.752;17.108;2023-04-10T04:14:48;28.73;;;24.93;;
13102;SDS011;52970;46.752;17.108;2023-04-10T04:17:13;16.57;;;12.57;;
13102;SDS011;52970;46.752;17.108;2023-04-10T04:19:38;21.77;;;17.10;;
13102;SDS011;52970;46.752;17.108;2023-04-10T04:22:04;16.47;;;14.30;;
13102;SDS011;52970;46.752;17.108;2023-04-10T04:24:29;15.57;;;11.87;;
13102;SDS011;52970;46.752;17.108;2023-04-10T04:26:55;14.97;;;11.87;;
13102;SDS011;52970;46.752;17.108;2023-04-10T04:29:21;15.03;;;12.20;;
13102;SDS011;52970;46.752;17.108;2023-04-10T04:31:46;13.90;;;11.13;;
13102;SDS011;52970;46.752;17.108;2023-04-10T04:34:11;15.47;;;12.63;;
13102;SDS011;52970;46.752;17.108;2023-04-10T04:36:36;14.33;;;12.23;;
13102;SDS011;52970;46.752;17.108;2023-04-10T04:39:02;17.07;;;13.03;;
13102;SDS011;52970;46.752;17.108;2023-04-10T04:41:27;17.60;;;14.20;;
13102;SDS011;52970;46.752;17.108;2023-04-10T04:43:54;15.83;;;12.20;;
13102;SDS011;52970;46.752;17.108;2023-04-10T04:46:20;16.43;;;11.87;;
13102;SDS011;52970;46.752;17.108;2023-04-10T04:48:45;14.57;;;11.83;;
13102;SDS011;52970;46.752;17.108;2023-04-10T04:51:10;18.20;;;13.77;;
13102;SDS011;52970;46.752;17.108;2023-04-10T04:53:35;17.73;;;13.53;;
13102;SDS011;52970;46.752;17.108;2023-04-10T04:56:01;17.00;;;14.40;;
13102;SDS011;52970;46.752;17.108;2023-04-10T04:58:27;18.23;;;14.57;;
13102;SDS011;52970;46.752;17.108;2023-04-10T05:00:52;20.23;;;17.77;;
13102;SDS011;52970;46.752;17.108;2023-04-10T05:03:18;18.73;;;15.80;;
13102;SDS011;52970;46.752;17.108;2023-04-10T05:05:44;17.53;;;15.60;;
13102;SDS011;52970;46.752;17.108;2023-04-10T05:08:09;15.07;;;11.70;;
13102;SDS011;52970;46.752;17.108;2023-04-10T05:10:34;16.10;;;12.67;;
13102;SDS011;52970;46.752;17.108;2023-04-10T05:13:00;17.53;;;13.20;;
13102;SDS011;52970;46.752;17.108;2023-04-10T05:15:25;18.30;;;13.63;;
13102;SDS011;52970;46.752;17.108;2023-04-10T05:17:50;17.37;;;13.60;;
13102;SDS011;52970;46.752;17.108;2023-04-10T05:20:17;16.20;;;12.60;;
13102;SDS011;52970;46.752;17.108;2023-04-10T05:22:42;15.20;;;11.20;;
13102;SDS011;52970;46.752;17.108;2023-04-10T05:25:09;14.27;;;11.90;;
13102;SDS011;52970;46.752;17.108;2023-04-10T05:27:35;14.67;;;11.70;;
13102;SDS011;52970;46.752;17.108;2023-04-10T05:30:00;15.97;;;12.07;;
13102;SDS011;52970;46.752;17.108;2023-04-10T05:32:25;16.30;;;13.30;;
13102;SDS011;52970;46.752;17.108;2023-04-10T05:34:50;17.13;;;13.47;;
13102;SDS011;52970;46.752;17.108;2023-04-10T05:37:15;15.43;;;12.53;;
13102;SDS011;52970;46.752;17.108;2023-04-10T05:39:41;17.23;;;12.93;;
13102;SDS011;52970;46.752;17.108;2023-04-10T05:42:06;18.10;;;13.43;;
13102;SDS011;52970;46.752;17.108;2023-04-10T05:44:31;15.00;;;12.67;;
13102;SDS011;52970;46.752;17.108;2023-04-10T05:46:56;17.37;;;13.60;;
13102;SDS011;52970;46.752;17.108;2023-04-10T05:49:22;17.87;;;13.43;;
13102;SDS011;52970;46.752;17.108;2023-04-10T05:51:47;18.53;;;13.53;;
13102;SDS011;52970;46.752;17.108;2023-04-10T05:54:16;24.10;;;19.37;;
13102;SDS011;52970;46.752;17.108;2023-04-10T05:56:42;20.63;;;18.30;;
13102;SDS011;52970;46.752;17.108;2023-04-10T05:59:07;26.97;;;20.93;;
13102;SDS011;52970;46.752;17.108;2023-04-10T06:01:32;19.27;;;13.10;;
13102;SDS011;52970;46.752;17.108;2023-04-10T06:03:58;16.53;;;13.13;;
13102;SDS011;52970;46.752;17.108;2023-04-10T06:06:24;19.00;;;13.77;;
13102;SDS011;52970;46.752;17.108;2023-04-10T06:08:50;18.93;;;15.00;;
13102;SDS011;52970;46.752;17.108;2023-04-10T06:11:15;19.27;;;13.43;;
13102;SDS011;52970;46.752;17.108;2023-04-10T06:13:41;19.10;;;14.00;;
13102;SDS011;52970;46.752;17.108;2023-04-10T06:16:06;19.27;;;14.40;;
13102;SDS011;52970;46.752;17.108;2023-04-10T06:18:32;19.67;;;14.33;;
13102;SDS011;52970;46.752;17.108;2023-04-10T06:20:57;18.57;;;13.43;;
13102;SDS011;52970;46.752;17.108;2023-04-10T06:23:25;21.03;;;15.40;;
13102;SDS011;52970;46.752;17.108;2023-04-10T06:25:51;23.60;;;15.40;;
13102;SDS011;52970;46.752;17.108;2023-04-10T06:28:17;22.73;;;16.20;;
13102;SDS011;52970;46.752;17.108;2023-04-10T06:30:42;24.03;;;16.67;;
13102;SDS011;52970;46.752;17.108;2023-04-10T06:33:07;23.53;;;16.97;;
13102;SDS011;52970;46.752;17.108;2023-04-10T06:35:32;21.53;;;15.37;;
13102;SDS011;52970;46.752;17.108;2023-04-10T06:37:58;20.30;;;15.40;;
13102;SDS011;52970;46.752;17.108;2023-04-10T06:40:23;20.60;;;14.93;;
13102;SDS011;52970;46.752;17.108;2023-04-10T06:42:48;22.90;;;16.73;;
13102;SDS011;52970;46.752;17.108;2023-04-10T06:45:13;21.80;;;15.33;;
13102;SDS011;52970;46.752;17.108;2023-04-10T06:47:39;19.10;;;15.27;;
13102;SDS011;52970;46.752;17.108;2023-04-10T06:50:04;21.27;;;16.23;;
13102;SDS011;52970;46.752;17.108;2023-04-10T06:52:30;20.37;;;14.97;;
13102;SDS011;52970;46.752;17.108;2023-04-10T06:54:55;21.93;;;16.10;;
13102;SDS011;52970;46.752;17.108;2023-04-10T06:57:21;21.37;;;15.17;;
13102;SDS011;52970;46.752;17.108;2023-04-10T06:59:46;21.73;;;15.53;;
13102;SDS011;52970;46.752;17.108;2023-04-10T07:02:12;30.07;;;25.37;;
13102;SDS011;52970;46.752;17.108;2023-04-10T07:04:37;20.37;;;16.93;;
13102;SDS011;52970;46.752;17.108;2023-04-10T07:07:02;21.27;;;16.93;;
13102;SDS011;52970;46.752;17.108;2023-04-10T07:09:28;21.37;;;14.93;;
13102;SDS011;52970;46.752;17.108;2023-04-10T07:11:53;20.83;;;15.50;;
13102;SDS011;52970;46.752;17.108;2023-04-10T07:14:18;28.40;;;20.90;;
13102;SDS011;52970;46.752;17.108;2023-04-10T07:16:44;23.00;;;17.40;;
13102;SDS011;52970;46.752;17.108;2023-04-10T07:19:10;24.17;;;17.98;;
13102;SDS011;52970;46.752;17.108;2023-04-10T07:21:35;22.13;;;16.63;;
13102;SDS011;52970;46.752;17.108;2023-04-10T07:24:00;21.42;;;15.68;;
13102;SDS011;52970;46.752;17.108;2023-04-10T07:26:26;19.25;;;15.88;;
13102;SDS011;52970;46.752;17.108;2023-04-10T07:28:51;24.33;;;17.15;;
13102;SDS011;52970;46.752;17.108;2023-04-10T07:31:17;25.55;;;17.75;;
13102;SDS011;52970;46.752;17.108;2023-04-10T07:33:43;23.38;;;16.88;;
13102;SDS011;52970;46.752;17.108;2023-04-10T07:36:08;21.20;;;15.73;;
13102;SDS011;52970;46.752;17.108;2023-04-10T07:38:34;22.40;;;16.67;;
13102;SDS011;52970;46.752;17.108;2023-04-10T07:40:59;23.13;;;16.77;;
13102;SDS011;52970;46.752;17.108;2023-04-10T07:43:24;23.17;;;17.08;;
13102;SDS011;52970;46.752;17.108;2023-04-10T07:45:50;22.33;;;16.70;;
13102;SDS011;52970;46.752;17.108;2023-04-10T07:48:15;23.45;;;18.25;;
13102;SDS011;52970;46.752;17.108;2023-04-10T07:50:40;22.88;;;16.63;;
13102;SDS011;52970;46.752;17.108;2023-04-10T07:53:06;22.75;;;17.52;;
13102;SDS011;52970;46.752;17.108;2023-04-10T07:55:52;23.73;;;17.88;;
13102;SDS011;52970;46.752;17.108;2023-04-10T07:58:17;24.08;;;17.75;;
13102;SDS011;52970;46.752;17.108;2023-04-10T08:00:42;23.10;;;17.95;;
13102;SDS011;52970;46.752;17.108;2023-04-10T08:03:08;24.35;;;17.83;;
13102;SDS011;52970;46.752;17.108;2023-04-10T08:05:33;23.17;;;17.13;;
13102;SDS011;52970;46.752;17.108;2023-04-10T08:07:58;22.02;;;18.23;;
13102;SDS011;52970;46.752;17.108;2023-04-10T08:10:24;25.35;;;19.48;;
13102;SDS011;52970;46.752;17.108;2023-04-10T08:12:49;27.38;;;20.02;;
13102;SDS011;52970;46.752;17.108;2023-04-10T08:15:15;26.75;;;21.05;;
13102;SDS011;52970;46.752;17.108;2023-04-10T08:17:41;24.67;;;18.73;;
13102;SDS011;52970;46.752;17.108;2023-04-10T08:20:06;25.92;;;19.50;;
13102;SDS011;52970;46.752;17.108;2023-04-10T08:22:32;28.52;;;20.50;;
13102;SDS011;52970;46.752;17.108;2023-04-10T08:24:57;28.05;;;21.75;;
13102;SDS011;52970;46.752;17.108;2023-04-10T08:27:22;30.77;;;22.50;;
13102;SDS011;52970;46.752;17.108;2023-04-10T08:29:47;32.08;;;25.70;;
13102;SDS011;52970;46.752;17.108;2023-04-10T08:32:13;28.63;;;21.90;;
13102;SDS011;52970;46.752;17.108;2023-04-10T08:34:38;27.17;;;20.60;;
13102;SDS011;52970;46.752;17.108;2023-04-10T08:37:06;27.73;;;21.38;;
13102;SDS011;52970;46.752;17.108;2023-04-10T08:39:34;30.98;;;22.77;;
13102;SDS011;52970;46.752;17.108;2023-04-10T08:41:59;28.23;;;22.25;;
13102;SDS011;52970;46.752;17.108;2023-04-10T08:44:24;30.88;;;22.75;;
13102;SDS011;52970;46.752;17.108;2023-04-10T08:46:50;27.77;;;21.55;;
13102;SDS011;52970;46.752;17.108;2023-04-10T08:52:13;27.33;;;21.02;;
13102;SDS011;52970;46.752;17.108;2023-04-10T08:54:39;26.95;;;21.75;;
13102;SDS011;52970;46.752;17.108;2023-04-10T08:57:05;28.58;;;21.60;;
13102;SDS011;52970;46.752;17.108;2023-04-10T08:59:31;27.98;;;21.35;;
13102;SDS011;52970;46.752;17.108;2023-04-10T09:01:56;25.98;;;20.52;;
13102;SDS011;52970;46.752;17.108;2023-04-10T09:04:23;26.35;;;20.70;;
13102;SDS011;52970;46.752;17.108;2023-04-10T09:06:48;25.92;;;20.13;;
13102;SDS011;52970;46.752;17.108;2023-04-10T09:09:13;28.02;;;20.88;;
13102;SDS011;52970;46.752;17.108;2023-04-10T09:14:19;28.70;;;21.65;;
13102;SDS011;52970;46.752;17.108;2023-04-10T09:16:44;31.05;;;24.60;;
13102;SDS011;52970;46.752;17.108;2023-04-10T09:19:10;25.15;;;20.85;;
13102;SDS011;52970;46.752;17.108;2023-04-10T09:21:35;28.25;;;22.42;;
13102;SDS011;52970;46.752;17.108;2023-04-10T09:24:00;25.20;;;20.50;;
13102;SDS011;52970;46.752;17.108;2023-04-10T09:26:29;30.17;;;23.77;;
13102;SDS011;52970;46.752;17.108;2023-04-10T09:31:27;32.85;;;26.85;;
13102;SDS011;52970;46.752;17.108;2023-04-10T09:34:05;26.15;;;21.63;;
13102;SDS011;52970;46.752;17.108;2023-04-10T09:36:30;26.73;;;21.85;;
13102;SDS011;52970;46.752;17.108;2023-04-10T09:38:56;26.13;;;20.80;;
13102;SDS011;52970;46.752;17.108;2023-04-10T09:41:21;27.42;;;21.08;;
13102;SDS011;52970;46.752;17.108;2023-04-10T09:43:46;25.85;;;21.73;;
13102;SDS011;52970;46.752;17.108;2023-04-10T09:46:12;27.55;;;20.90;;
13102;SDS011;52970;46.752;17.108;2023-04-10T09:48:55;29.13;;;22.05;;
13102;SDS011;52970;46.752;17.108;2023-04-10T09:51:30;24.75;;;20.77;;
13102;SDS011;52970;46.752;17.108;2023-04-10T09:53:55;26.73;;;20.45;;
13102;SDS011;52970;46.752;17.108;2023-04-10T09:56:24;25.63;;;20.63;;
13102;SDS011;52970;46.752;17.108;2023-04-10T09:58:50;26.33;;;20.45;;
13102;SDS011;52970;46.752;17.108;2023-04-10T10:01:16;27.20;;;22.25;;
13102;SDS011;52970;46.752;17.108;2023-04-10T10:03:42;23.63;;;19.23;;
13102;SDS011;52970;46.752;17.108;2023-04-10T10:06:07;27.10;;;20.33;;
13102;SDS011;52970;46.752;17.108;2023-04-10T10:08:35;25.23;;;19.40;;
13102;SDS011;52970;46.752;17.108;2023-04-10T10:11:00;26.02;;;21.08;;
13102;SDS011;52970;46.752;17.108;2023-04-10T10:13:30;28.33;;;23.00;;
13102;SDS011;52970;46.752;17.108;2023-04-10T10:18:26;25.60;;;19.35;;
13102;SDS011;52970;46.752;17.108;2023-04-10T10:20:53;35.28;;;30.58;;
13102;SDS011;52970;46.752;17.108;2023-04-10T10:23:19;23.98;;;20.10;;
13102;SDS011;52970;46.752;17.108;2023-04-10T10:25:45;23.58;;;18.80;;
13102;SDS011;52970;46.752;17.108;2023-04-10T10:28:12;20.60;;;17.85;;
13102;SDS011;52970;46.752;17.108;2023-04-10T10:30:38;24.35;;;19.02;;
13102;SDS011;52970;46.752;17.108;2023-04-10T10:33:05;23.27;;;19.42;;
13102;SDS011;52970;46.752;17.108;2023-04-10T10:35:31;22.20;;;18.42;;
13102;SDS011;52970;46.752;17.108;2023-04-10T10:37:58;21.30;;;17.98;;
13102;SDS011;52970;46.752;17.108;2023-04-10T10:42:54;22.27;;;18.63;;
13102;SDS011;52970;46.752;17.108;2023-04-10T10:45:21;23.20;;;17.67;;
13102;SDS011;52970;46.752;17.108;2023-04-10T10:47:48;22.70;;;17.85;;
13102;SDS011;52970;46.752;17.108;2023-04-10T10:50:14;22.63;;;18.63;;
13102;SDS011;52970;46.752;17.108;2023-04-10T10:52:40;21.90;;;18.40;;
13102;SDS011;52970;46.752;17.108;2023-04-10T10:57:47;22.65;;;18.20;;
13102;SDS011;52970;46.752;17.108;2023-04-10T11:00:13;22.77;;;18.42;;
13102;SDS011;52970;46.752;17.108;2023-04-10T11:02:38;26.00;;;18.40;;
13102;SDS011;52970;46.752;17.108;2023-04-10T11:05:04;26.92;;;19.60;;
13102;SDS011;52970;46.752;17.108;2023-04-10T11:13:14;19.95;;;16.08;;
13102;SDS011;52970;46.752;17.108;2023-04-10T11:15:40;20.08;;;16.92;;
13102;SDS011;52970;46.752;17.108;2023-04-10T11:18:06;18.88;;;16.75;;
13102;SDS011;52970;46.752;17.108;2023-04-10T11:20:31;18.38;;;15.52;;
13102;SDS011;52970;46.752;17.108;2023-04-10T11:23:16;19.98;;;17.17;;
13102;SDS011;52970;46.752;17.108;2023-04-10T11:25:45;20.25;;;16.83;;
13102;SDS011;52970;46.752;17.108;2023-04-10T11:28:22;21.98;;;17.38;;
13102;SDS011;52970;46.752;17.108;2023-04-10T11:30:55;19.27;;;16.23;;
13102;SDS011;52970;46.752;17.108;2023-04-10T11:33:20;18.25;;;15.52;;
13102;SDS011;52970;46.752;17.108;2023-04-10T11:35:46;18.17;;;16.23;;
13102;SDS011;52970;46.752;17.108;2023-04-10T11:38:15;19.25;;;15.13;;
13102;SDS011;52970;46.752;17.108;2023-04-10T11:40:56;18.00;;;15.20;;
13102;SDS011;52970;46.752;17.108;2023-04-10T11:43:21;17.50;;;15.60;;
13102;SDS011;52970;46.752;17.108;2023-04-10T11:45:47;18.55;;;16.20;;
13102;SDS011;52970;46.752;17.108;2023-04-10T11:48:13;16.00;;;14.18;;
13102;SDS011;52970;46.752;17.108;2023-04-10T11:50:40;18.10;;;14.15;;
13102;SDS011;52970;46.752;17.108;2023-04-10T11:53:26;14.75;;;13.15;;
13102;SDS011;52970;46.752;17.108;2023-04-10T11:55:51;17.45;;;14.48;;
13102;SDS011;52970;46.752;17.108;2023-04-10T11:58:26;16.45;;;14.18;;
13102;SDS011;52970;46.752;17.108;2023-04-10T12:01:01;15.80;;;14.02;;
13102;SDS011;52970;46.752;17.108;2023-04-10T12:03:34;17.98;;;15.55;;
13102;SDS011;52970;46.752;17.108;2023-04-10T12:06:00;18.02;;;15.95;;
13102;SDS011;52970;46.752;17.108;2023-04-10T12:08:35;18.50;;;15.73;;
13102;SDS011;52970;46.752;17.108;2023-04-10T12:11:01;19.08;;;15.90;;
13102;SDS011;52970;46.752;17.108;2023-04-10T12:13:27;14.85;;;13.07;;
13102;SDS011;52970;46.752;17.108;2023-04-10T12:15:53;14.48;;;12.18;;
13102;SDS011;52970;46.752;17.108;2023-04-10T12:18:21;15.05;;;13.30;;
13102;SDS011;52970;46.752;17.108;2023-04-10T12:20:47;15.60;;;13.35;;
13102;SDS011;52970;46.752;17.108;2023-04-10T12:23:12;15.77;;;14.10;;
13102;SDS011;52970;46.752;17.108;2023-04-10T12:25:38;17.85;;;14.27;;
13102;SDS011;52970;46.752;17.108;2023-04-10T12:28:03;15.23;;;13.07;;
13102;SDS011;52970;46.752;17.108;2023-04-10T12:30:28;12.23;;;10.98;;
13102;SDS011;52970;46.752;17.108;2023-04-10T12:32:53;14.10;;;12.60;;
13102;SDS011;52970;46.752;17.108;2023-04-10T12:35:19;13.95;;;12.20;;
13102;SDS011;52970;46.752;17.108;2023-04-10T12:37:45;14.40;;;12.40;;
13102;SDS011;52970;46.752;17.108;2023-04-10T12:40:11;15.63;;;13.85;;
13102;SDS011;52970;46.752;17.108;2023-04-10T12:42:40;15.60;;;13.50;;
13102;SDS011;52970;46.752;17.108;2023-04-10T12:45:06;14.95;;;13.25;;
13102;SDS011;52970;46.752;17.108;2023-04-10T12:47:41;12.63;;;11.25;;
13102;SDS011;52970;46.752;17.108;2023-04-10T12:50:11;13.38;;;11.98;;
13102;SDS011;52970;46.752;17.108;2023-04-10T12:52:41;17.38;;;15.57;;
13102;SDS011;52970;46.752;17.108;2023-04-10T12:57:35;15.63;;;13.95;;
13102;SDS011;52970;46.752;17.108;2023-04-10T13:00:00;13.70;;;12.30;;
13102;SDS011;52970;46.752;17.108;2023-04-10T13:02:27;14.55;;;13.05;;
13102;SDS011;52970;46.752;17.108;2023-04-10T13:04:53;17.05;;;14.55;;
13102;SDS011;52970;46.752;17.108;2023-04-10T13:07:18;13.20;;;11.40;;
13102;SDS011;52970;46.752;17.108;2023-04-10T13:09:43;17.50;;;15.07;;
13102;SDS011;52970;46.752;17.108;2023-04-10T13:12:09;15.90;;;14.20;;
13102;SDS011;52970;46.752;17.108;2023-04-10T13:14:34;13.32;;;11.93;;
13102;SDS011;52970;46.752;17.108;2023-04-10T13:17:01;12.15;;;10.70;;
13102;SDS011;52970;46.752;17.108;2023-04-10T13:19:26;12.52;;;11.23;;
13102;SDS011;52970;46.752;17.108;2023-04-10T13:21:51;10.82;;;9.15;;
13102;SDS011;52970;46.752;17.108;2023-04-10T13:24:16;10.75;;;9.68;;
13102;SDS011;52970;46.752;17.108;2023-04-10T13:26:42;11.00;;;9.80;;
13102;SDS011;52970;46.752;17.108;2023-04-10T13:29:07;11.20;;;10.00;;
13102;SDS011;52970;46.752;17.108;2023-04-10T13:31:32;14.38;;;11.93;;
13102;SDS011;52970;46.752;17.108;2023-04-10T13:33:58;12.95;;;11.55;;
13102;SDS011;52970;46.752;17.108;2023-04-10T13:36:23;12.82;;;11.40;;
13102;SDS011;52970;46.752;17.108;2023-04-10T13:38:48;10.57;;;9.48;;
13102;SDS011;52970;46.752;17.108;2023-04-10T13:41:13;11.85;;;10.63;;
13102;SDS011;52970;46.752;17.108;2023-04-10T13:43:39;10.25;;;9.25;;
13102;SDS011;52970;46.752;17.108;2023-04-10T13:46:04;11.75;;;10.50;;
13102;SDS011;52970;46.752;17.108;2023-04-10T13:48:29;11.55;;;9.70;;
13102;SDS011;52970;46.752;17.108;2023-04-10T13:50:55;11.82;;;10.63;;
13102;SDS011;52970;46.752;17.108;2023-04-10T13:53:20;12.23;;;10.48;;
13102;SDS011;52970;46.752;17.108;2023-04-10T13:55:46;13.82;;;11.95;;
13102;SDS011;52970;46.752;17.108;2023-04-10T13:58:12;10.52;;;9.43;;
13102;SDS011;52970;46.752;17.108;2023-04-10T14:00:38;11.48;;;10.27;;
13102;SDS011;52970;46.752;17.108;2023-04-10T14:03:04;8.68;;;7.88;;
13102;SDS011;52970;46.752;17.108;2023-04-10T14:05:29;10.13;;;8.70;;
13102;SDS011;52970;46.752;17.108;2023-04-10T14:07:55;8.80;;;7.88;;
13102;SDS011;52970;46.752;17.108;2023-04-10T14:10:24;9.15;;;8.25;;
13102;SDS011;52970;46.752;17.108;2023-04-10T14:12:49;8.82;;;7.55;;
13102;SDS011;52970;46.752;17.108;2023-04-10T14:15:14;8.15;;;7.40;;
13102;SDS011;52970;46.752;17.108;2023-04-10T14:17:40;9.25;;;8.32;;
13102;SDS011;52970;46.752;17.108;2023-04-10T14:20:05;12.35;;;10.23;;
13102;SDS011;52970;46.752;17.108;2023-04-10T14:22:30;12.25;;;10.82;;
13102;SDS011;52970;46.752;17.108;2023-04-10T14:24:56;12.27;;;10.73;;
13102;SDS011;52970;46.752;17.108;2023-04-10T14:27:21;11.13;;;9.98;;
13102;SDS011;52970;46.752;17.108;2023-04-10T14:29:46;9.80;;;8.27;;
13102;SDS011;52970;46.752;17.108;2023-04-10T14:32:12;10.40;;;9.15;;
13102;SDS011;52970;46.752;17.108;2023-04-10T14:34:37;8.63;;;7.72;;
13102;SDS011;52970;46.752;17.108;2023-04-10T14:37:02;7.65;;;6.82;;